Time;durP1;ratioP1;P1;durP2;ratioP2;P2;SDS_P1;SDS_P2;PMS_P1;PMS_P2;Temp;Humidity;BMP_temperature;BMP_pressure;BME280_temperature;BME280_humidity;BME280_pressure;Samples;Min_cycle;Max_cycle;Signal;HPM_P1;HPM_P2
2021/12/13 00:01:38;;;;;;;6.65;2.40;;;13.70;78.60;;;;;;5014694;28;20385;-75
2021/12/13 00:04:16;;;;;;;5.72;2.60;;;13.70;78.60;;;;;;4972273;28;20050;-75
2021/12/13 00:06:53;;;;;;;8.02;2.70;;;13.70;78.60;;;;;;5008494;28;20034;-75
2021/12/13 00:09:24;;;;;;;10.80;2.95;;;13.70;78.60;;;;;;5020176;28;20049;-75
2021/12/13 00:11:57;;;;;;;5.03;2.13;;;13.70;78.60;;;;;;5029322;28;20088;-74
2021/12/13 00:14:46;;;;;;;6.85;2.40;;;13.70;78.60;;;;;;5028669;28;20047;-75
2021/12/13 00:17:17;;;;;;;7.07;1.85;;;13.70;78.60;;;;;;5030017;28;20396;-76
2021/12/13 00:19:50;;;;;;;5.47;2.30;;;13.70;78.60;;;;;;5027720;28;20435;-75
2021/12/13 00:22:36;;;;;;;6.78;2.20;;;13.70;78.60;;;;;;5026963;28;20032;-75
2021/12/13 00:25:13;;;;;;;5.93;1.88;;;13.70;78.60;;;;;;5027985;28;20026;-75
2021/12/13 00:27:53;;;;;;;4.07;1.90;;;13.70;78.60;;;;;;5027257;28;20029;-75
2021/12/13 00:30:34;;;;;;;6.97;2.38;;;13.70;78.60;;;;;;5027668;28;20048;-75
2021/12/13 00:33:25;;;;;;;7.60;3.42;;;13.70;78.60;;;;;;5027478;28;20083;-75
2021/12/13 00:35:59;;;;;;;6.07;1.67;;;13.70;78.60;;;;;;5027150;28;20032;-75
2021/12/13 00:38:29;;;;;;;6.10;2.08;;;13.70;78.60;;;;;;5027602;28;20044;-75
2021/12/13 00:41:05;;;;;;;7.97;3.15;;;13.70;78.60;;;;;;5026662;28;20033;-74
2021/12/13 00:43:49;;;;;;;3.20;1.73;;;13.70;78.60;;;;;;5027542;28;20784;-75
2021/12/13 00:46:17;;;;;;;6.43;1.88;;;13.70;78.60;;;;;;5026194;28;20025;-76
2021/12/13 00:48:47;;;;;;;3.80;1.80;;;13.70;78.60;;;;;;5025550;28;20025;-75
2021/12/13 00:51:21;;;;;;;8.45;2.85;;;13.70;78.60;;;;;;5026824;28;20065;-74
2021/12/13 00:53:50;;;;;;;4.78;2.22;;;13.70;78.60;;;;;;5026063;28;20032;-74
2021/12/13 00:56:44;;;;;;;5.82;2.28;;;13.60;78.40;;;;;;5026897;28;20025;-75
2021/12/13 00:59:23;;;;;;;9.70;2.60;;;13.60;78.40;;;;;;5027141;28;20079;-74
2021/12/13 01:02:09;;;;;;;5.68;1.98;;;13.60;78.50;;;;;;5026932;28;20420;-75
2021/12/13 01:05:00;;;;;;;4.65;1.52;;;13.60;78.50;;;;;;5026589;28;20136;-75
2021/12/13 01:08:03;;;;;;;6.30;1.48;;;13.60;78.60;;;;;;5027217;28;20029;-74
2021/12/13 01:10:39;;;;;;;7.53;1.70;;;13.60;78.50;;;;;;5026910;28;20088;-75
2021/12/13 01:13:26;;;;;;;4.93;1.83;;;13.60;78.50;;;;;;5026488;28;20424;-74
2021/12/13 01:16:01;;;;;;;6.05;2.92;;;13.60;78.50;;;;;;5026869;28;20087;-75
2021/12/13 01:19:24;;;;;;;3.90;2.33;;;13.60;78.60;;;;;;5025148;28;20394;-74
2021/12/13 01:21:42;;;;;;;5.32;2.60;;;13.60;78.60;;;;;;5026884;28;20069;-74
2021/12/13 01:24:19;;;;;;;9.52;2.22;;;13.60;78.60;;;;;;5026837;28;20026;-74
2021/12/13 01:26:48;;;;;;;5.55;2.03;;;13.60;78.60;;;;;;5026992;28;20601;-75
2021/12/13 01:29:18;;;;;;;6.63;1.98;;;13.60;78.60;;;;;;5026258;28;20242;-75
2021/12/13 01:31:53;;;;;;;4.93;2.45;;;13.50;78.40;;;;;;5026109;28;20030;-74
2021/12/13 01:34:21;;;;;;;9.30;1.75;;;13.60;78.60;;;;;;5024875;28;20053;-75
2021/12/13 01:37:00;;;;;;;3.58;2.10;;;13.60;78.60;;;;;;5026457;28;20033;-75
2021/12/13 01:39:29;;;;;;;4.82;1.73;;;13.50;78.50;;;;;;5025819;28;20033;-75
2021/12/13 01:42:01;;;;;;;7.25;1.60;;;13.50;78.50;;;;;;5024568;28;20477;-74
2021/12/13 01:44:29;;;;;;;;;;;13.50;78.50;;;;;;5025688;28;20033;-75
2021/12/13 01:47:06;;;;;;;3.42;1.75;;;13.50;78.50;;;;;;5026228;28;19913;-74
2021/12/13 01:49:46;;;;;;;4.18;1.77;;;13.50;78.50;;;;;;5024797;28;20068;-75
2021/12/13 01:52:28;;;;;;;3.60;2.17;;;13.50;78.50;;;;;;5013149;28;20038;-75
2021/12/13 01:54:57;;;;;;;3.97;1.67;;;13.50;78.50;;;;;;5018088;28;20095;-75
2021/12/13 01:57:38;;;;;;;8.32;1.70;;;13.50;78.60;;;;;;5024513;28;20021;-75
2021/12/13 02:00:17;;;;;;;4.18;1.35;;;13.40;78.90;;;;;;5025768;28;20069;-75
2021/12/13 02:02:47;;;;;;;4.70;1.95;;;13.50;78.60;;;;;;5024601;28;20037;-76
2021/12/13 02:05:18;;;;;;;4.40;1.83;;;13.50;78.60;;;;;;5025987;28;20046;-75
2021/12/13 02:07:51;;;;;;;5.72;2.83;;;13.50;78.60;;;;;;5025894;28;20377;-74
2021/12/13 02:10:29;;;;;;;6.85;2.15;;;13.50;78.70;;;;;;5026441;28;20038;-74
2021/12/13 02:13:03;;;;;;;8.65;1.92;;;13.50;78.60;;;;;;5008386;28;20043;-74
2021/12/13 02:18:23;;;;;;;5.35;1.90;;;13.50;78.60;;;;;;5025636;28;20039;-74
2021/12/13 02:21:02;;;;;;;4.95;1.58;;;13.50;78.60;;;;;;5025651;28;20069;-73
2021/12/13 02:23:30;;;;;;;4.78;1.67;;;13.50;78.60;;;;;;5027016;28;20062;-74
2021/12/13 02:25:57;;;;;;;5.50;1.95;;;13.50;78.70;;;;;;5025629;28;20041;-73
2021/12/13 02:28:31;;;;;;;4.78;1.65;;;13.50;78.70;;;;;;5026058;28;20029;-73
2021/12/13 02:31:04;;;;;;;4.05;1.33;;;13.50;78.70;;;;;;5022588;28;20505;-73
2021/12/13 02:33:32;;;;;;;5.15;1.58;;;13.50;78.70;;;;;;5013648;28;20053;-75
2021/12/13 02:36:03;;;;;;;3.22;1.50;;;13.50;78.70;;;;;;5018817;28;20030;-76
2021/12/13 02:38:30;;;;;;;4.22;1.65;;;13.40;78.50;;;;;;5011090;28;20174;-76
2021/12/13 02:40:57;;;;;;;5.10;1.65;;;13.40;78.50;;;;;;5027652;28;20097;-75
2021/12/13 02:43:27;;;;;;;4.60;1.45;;;13.40;78.50;;;;;;5027297;28;20512;-75
2021/12/13 02:45:56;;;;;;;5.38;1.50;;;13.40;78.60;;;;;;5026800;28;20469;-76
2021/12/13 02:48:34;;;;;;;2.78;1.17;;;13.40;78.60;;;;;;5028598;28;20038;-75
2021/12/13 02:51:09;;;;;;;4.90;1.42;;;13.40;78.60;;;;;;5031058;28;20037;-75
2021/12/13 02:53:58;;;;;;;4.22;1.05;;;13.40;78.60;;;;;;5034140;28;20037;-76
2021/12/13 02:56:29;;;;;;;6.60;1.65;;;13.40;78.60;;;;;;5034081;28;20415;-76
2021/12/13 02:58:58;;;;;;;5.05;1.42;;;13.40;78.60;;;;;;5034008;28;20496;-75
2021/12/13 03:01:31;;;;;;;4.90;1.73;;;13.40;78.60;;;;;;5033933;28;20736;-75
2021/12/13 03:04:00;;;;;;;4.75;1.55;;;13.40;78.70;;;;;;5034017;28;20056;-75
2021/12/13 03:06:31;;;;;;;5.70;1.92;;;13.40;78.60;;;;;;5033541;28;20029;-76
2021/12/13 03:09:11;;;;;;;5.05;1.65;;;13.40;78.70;;;;;;5032393;28;20064;-75
2021/12/13 03:11:37;;;;;;;6.85;1.77;;;13.40;78.70;;;;;;5034031;28;20025;-75
2021/12/13 03:14:06;;;;;;;3.65;1.30;;;13.40;78.60;;;;;;5033807;28;20037;-75
2021/12/13 03:16:55;;;;;;;4.18;1.13;;;13.40;78.70;;;;;;5033673;28;20609;-75
2021/12/13 03:19:34;;;;;;;3.05;1.30;;;13.40;78.70;;;;;;5033582;28;20029;-76
2021/12/13 03:22:13;;;;;;;3.88;1.27;;;13.40;78.60;;;;;;5033810;28;20119;-76
2021/12/13 03:25:07;;;;;;;3.47;1.40;;;13.40;78.60;;;;;;5033402;28;20496;-75
2021/12/13 03:28:18;;;;;;;3.70;1.50;;;13.40;78.60;;;;;;5033697;28;20152;-76
2021/12/13 03:31:06;;;;;;;3.58;1.70;;;13.40;78.60;;;;;;5033413;28;20041;-76
2021/12/13 03:33:55;;;;;;;5.18;1.95;;;13.40;78.60;;;;;;5033492;28;20129;-73
2021/12/13 03:36:46;;;;;;;3.72;1.30;;;13.40;78.60;;;;;;5026593;28;20128;-76
2021/12/13 03:39:18;;;;;;;3.13;1.38;;;13.40;78.60;;;;;;5013785;28;20034;-76
2021/12/13 03:41:47;;;;;;;2.55;1.38;;;13.40;78.60;;;;;;5013662;28;20030;-76
2021/12/13 03:44:21;;;;;;;3.58;1.55;;;13.40;78.70;;;;;;5013054;28;20496;-77
2021/12/13 03:46:49;;;;;;;3.35;1.20;;;13.40;78.70;;;;;;5012021;28;20036;-76
2021/12/13 03:49:19;;;;;;;3.92;1.25;;;13.40;78.70;;;;;;5013345;28;20036;-77
2021/12/13 03:51:45;;;;;;;5.18;1.30;;;13.40;78.70;;;;;;5013015;28;20036;-76
2021/12/13 03:54:16;;;;;;;2.40;1.10;;;13.40;78.70;;;;;;5013579;28;20032;-76
2021/12/13 03:56:46;;;;;;;3.20;1.35;;;13.30;78.60;;;;;;5011752;28;20025;-76
2021/12/13 03:59:19;;;;;;;5.10;2.17;;;13.30;78.60;;;;;;5013717;28;20124;-76
2021/12/13 04:01:59;;;;;;;3.05;1.23;;;13.30;78.60;;;;;;5013720;28;20116;-75
2021/12/13 04:04:45;;;;;;;3.90;1.30;;;13.40;78.80;;;;;;5013661;28;20061;-74
2021/12/13 04:07:17;;;;;;;3.30;1.27;;;13.40;78.80;;;;;;5009191;28;20040;-76
2021/12/13 04:09:46;;;;;;;5.67;1.97;;;13.30;78.60;;;;;;5013559;28;20280;-75
2021/12/13 04:12:14;;;;;;;4.90;1.80;;;13.40;78.80;;;;;;5013249;28;20048;-76
2021/12/13 04:14:52;;;;;;;3.42;1.77;;;13.40;78.80;;;;;;5013124;28;20037;-75
2021/12/13 04:17:45;;;;;;;3.97;1.67;;;13.40;78.80;;;;;;5013541;28;20042;-75
2021/12/13 04:20:25;;;;;;;3.88;1.10;;;13.40;78.80;;;;;;5011546;28;20362;-76
2021/12/13 04:22:59;;;;;;;4.90;1.48;;;13.40;78.80;;;;;;5013034;28;20022;-75
2021/12/13 04:25:33;;;;;;;4.63;1.25;;;13.40;78.80;;;;;;5012920;28;20500;-75
2021/12/13 04:28:19;;;;;;;4.10;1.45;;;13.40;78.80;;;;;;5012900;28;20120;-75
2021/12/13 04:30:52;;;;;;;6.68;1.58;;;13.40;78.80;;;;;;5012713;28;20497;-75
2021/12/13 04:33:21;;;;;;;;;;;13.40;78.80;;;;;;5012032;28;20037;-75
2021/12/13 04:35:56;;;;;;;2.50;1.40;;;13.40;79.30;;;;;;5012884;28;19909;-76
2021/12/13 04:38:30;;;;;;;3.38;1.30;;;13.40;78.70;;;;;;5016586;28;20417;-75
2021/12/13 04:40:56;;;;;;;3.90;2.03;;;13.40;78.80;;;;;;5031023;28;20033;-74
2021/12/13 04:43:23;;;;;;;5.95;1.92;;;13.40;78.80;;;;;;5031805;28;20298;-74
2021/12/13 04:45:55;;;;;;;5.15;2.17;;;13.40;78.80;;;;;;5031693;28;20370;-75
2021/12/13 04:48:25;;;;;;;4.63;2.20;;;13.40;78.90;;;;;;5031713;28;20031;-75
2021/12/13 04:51:08;;;;;;;3.85;1.73;;;13.40;78.90;;;;;;5030175;28;20144;-75
2021/12/13 04:53:40;;;;;;;3.65;1.27;;;13.40;78.90;;;;;;5032224;28;20112;-75
2021/12/13 04:56:14;;;;;;;3.03;1.70;;;13.40;78.90;;;;;;5031809;28;20120;-75
2021/12/13 04:58:42;;;;;;;5.38;1.33;;;13.40;78.90;;;;;;5031759;28;20025;-74
2021/12/13 05:01:11;;;;;;;5.55;1.23;;;13.40;78.90;;;;;;5031142;28;20559;-75
2021/12/13 05:03:51;;;;;;;7.28;2.08;;;13.40;78.90;;;;;;5030272;28;20045;-75
2021/12/13 05:06:21;;;;;;;2.67;1.10;;;13.40;79.00;;;;;;5031594;28;20396;-75
2021/12/13 05:08:53;;;;;;;3.38;2.03;;;13.40;78.90;;;;;;5030049;28;20083;-76
2021/12/13 05:11:20;;;;;;;5.03;1.33;;;13.40;79.00;;;;;;5031779;28;20124;-76
2021/12/13 05:13:54;;;;;;;2.85;1.08;;;13.30;78.80;;;;;;5030701;28;20025;-75
2021/12/13 05:16:31;;;;;;;5.45;1.40;;;13.40;79.00;;;;;;5031541;28;20061;-75
2021/12/13 05:18:57;;;;;;;4.53;1.85;;;13.30;78.80;;;;;;5030001;28;20034;-75
2021/12/13 05:21:36;;;;;;;6.35;1.80;;;13.30;78.90;;;;;;5031111;28;20044;-76
2021/12/13 05:24:10;;;;;;;5.70;1.50;;;13.30;78.90;;;;;;5030949;28;20040;-75
2021/12/13 05:26:54;;;;;;;3.75;1.80;;;13.30;78.90;;;;;;5031259;28;20021;-74
2021/12/13 05:29:45;;;;;;;5.53;1.65;;;13.30;78.90;;;;;;5030858;28;20042;-75
2021/12/13 05:32:19;;;;;;;7.28;1.58;;;13.30;78.90;;;;;;5031425;28;20033;-75
2021/12/13 05:34:49;;;;;;;4.40;1.38;;;13.30;78.90;;;;;;5031049;28;20034;-75
2021/12/13 05:37:16;;;;;;;3.28;1.48;;;13.30;78.90;;;;;;5031209;28;20121;-75
2021/12/13 05:40:10;;;;;;;4.32;1.40;;;13.30;78.90;;;;;;5031323;28;20065;-75
2021/12/13 05:42:43;;;;;;;4.03;1.35;;;13.30;78.90;;;;;;5029266;28;20073;-75
2021/12/13 05:45:13;;;;;;;6.65;1.55;;;13.30;78.90;;;;;;5030945;28;20025;-76
2021/12/13 05:48:01;;;;;;;3.67;2.13;;;13.30;78.90;;;;;;5028215;28;20152;-75
2021/12/13 05:50:37;;;;;;;2.53;1.17;;;13.30;78.90;;;;;;5023367;28;20037;-75
2021/12/13 05:53:18;;;;;;;3.63;1.73;;;13.30;78.90;;;;;;5019236;28;20028;-75
2021/12/13 05:56:02;;;;;;;9.48;2.13;;;13.30;78.90;;;;;;5019374;28;20021;-74
2021/12/13 05:58:50;;;;;;;3.55;1.35;;;13.30;78.90;;;;;;5015982;28;20129;-75
2021/12/13 06:01:36;;;;;;;3.03;1.20;;;13.30;78.80;;;;;;5025839;28;20030;-75
2021/12/13 06:04:11;;;;;;;5.00;1.60;;;13.30;78.90;;;;;;5007700;28;20104;-75
2021/12/13 06:06:52;;;;;;;4.63;1.52;;;13.30;78.90;;;;;;5012510;28;20037;-75
2021/12/13 06:09:40;;;;;;;3.90;1.15;;;13.30;78.90;;;;;;5024007;28;20046;-75
2021/12/13 06:12:10;;;;;;;3.03;1.80;;;13.30;78.90;;;;;;5024289;28;20091;-74
2021/12/13 06:14:36;;;;;;;4.50;2.22;;;13.30;78.90;;;;;;5024455;28;20120;-75
2021/12/13 06:17:05;;;;;;;4.43;1.30;;;13.30;78.90;;;;;;5026036;28;20111;-75
2021/12/13 06:19:35;;;;;;;3.47;1.08;;;13.30;78.90;;;;;;5025664;28;20026;-75
2021/12/13 06:22:12;;;;;;;3.10;1.25;;;13.30;78.90;;;;;;5024967;28;20030;-75
2021/12/13 06:24:41;;;;;;;2.10;1.10;;;13.30;78.90;;;;;;5025866;28;20075;-75
2021/12/13 06:27:15;;;;;;;3.85;1.65;;;13.30;78.90;;;;;;5028189;28;20385;-75
2021/12/13 06:29:50;;;;;;;4.50;1.80;;;13.30;78.90;;;;;;5005163;28;20050;-75
2021/12/13 06:32:32;;;;;;;4.20;1.58;;;13.30;78.90;;;;;;5013765;28;20191;-75
2021/12/13 06:35:19;;;;;;;6.07;1.58;;;13.30;78.90;;;;;;5018223;28;20168;-75
2021/12/13 06:37:45;;;;;;;2.40;1.33;;;13.30;78.80;;;;;;5012822;28;20480;-74
2021/12/13 06:40:14;;;;;;;3.90;1.30;;;13.30;78.80;;;;;;5029074;28;20591;-74
2021/12/13 06:42:40;;;;;;;3.42;1.27;;;13.30;78.80;;;;;;5029006;28;20471;-74
2021/12/13 06:45:21;;;;;;;4.00;1.13;;;13.30;78.80;;;;;;5029474;28;20086;-75
2021/12/13 06:47:50;;;;;;;2.63;1.33;;;13.30;78.70;;;;;;5030742;28;20033;-74
2021/12/13 06:50:24;;;;;;;2.67;1.20;;;13.30;78.70;;;;;;5029149;28;20132;-73
2021/12/13 06:52:51;;;;;;;5.28;1.52;;;13.30;78.70;;;;;;5029730;28;20437;-74
2021/12/13 06:55:19;;;;;;;5.05;1.30;;;13.30;78.70;;;;;;5028552;28;20057;-74
2021/12/13 06:58:00;;;;;;;4.57;1.42;;;13.30;78.70;;;;;;5029630;28;20411;-73
2021/12/13 07:00:32;;;;;;;4.18;1.60;;;13.40;78.90;;;;;;5028045;28;20060;-73
2021/12/13 07:03:09;;;;;;;3.87;1.30;;;13.40;78.80;;;;;;5029099;28;20038;-73
2021/12/13 07:05:49;;;;;;;4.22;1.33;;;13.40;78.80;;;;;;5027924;28;20029;-73
2021/12/13 07:08:28;;;;;;;4.38;1.45;;;13.40;79.30;;;;;;5028521;28;20039;-73
2021/12/13 07:10:55;;;;;;;4.35;1.30;;;13.40;78.80;;;;;;5028586;28;20057;-74
2021/12/13 07:13:38;;;;;;;4.15;1.98;;;13.30;78.60;;;;;;5029452;28;20597;-72
2021/12/13 07:16:11;;;;;;;5.38;2.08;;;13.30;78.60;;;;;;5029377;28;20056;-73
2021/12/13 07:18:40;;;;;;;6.63;1.52;;;13.30;78.70;;;;;;5023756;28;20033;-73
2021/12/13 07:21:11;;;;;;;6.82;1.70;;;13.40;79.30;;;;;;5023990;28;20138;-75
2021/12/13 07:24:02;;;;;;;4.40;1.27;;;13.40;79.60;;;;;;5019860;28;20611;-75
2021/12/13 07:26:53;;;;;;;5.03;1.73;;;13.50;79.90;;;;;;5026224;28;20060;-76
2021/12/13 07:29:26;;;;;;;31.65;2.42;;;13.50;79.90;;;;;;5027785;28;20042;-75
2021/12/13 07:32:17;;;;;;;2.90;1.08;;;13.50;79.80;;;;;;5028068;28;20033;-76
2021/12/13 07:35:00;;;;;;;3.75;1.33;;;13.50;79.90;;;;;;5027733;28;20029;-74
2021/12/13 07:37:45;;;;;;;8.32;1.80;;;13.50;79.80;;;;;;5025622;28;20122;-75
2021/12/13 07:40:39;;;;;;;2.45;0.98;;;13.50;79.80;;;;;;5027619;28;20477;-74
2021/12/13 07:43:17;;;;;;;2.47;1.30;;;13.50;79.80;;;;;;5023332;28;20084;-74
2021/12/13 07:45:59;;;;;;;3.33;1.00;;;13.50;80.30;;;;;;5011217;28;20029;-74
2021/12/13 07:48:30;;;;;;;3.38;1.25;;;13.50;79.80;;;;;;5018735;28;20030;-74
2021/12/13 07:51:18;;;;;;;4.55;1.23;;;13.50;79.80;;;;;;5024421;28;20034;-74
2021/12/13 07:53:44;;;;;;;3.55;1.40;;;13.50;79.80;;;;;;5026975;28;20396;-74
2021/12/13 07:56:13;;;;;;;2.30;1.30;;;13.60;79.90;;;;;;5028425;28;20052;-74
2021/12/13 07:58:45;;;;;;;3.28;1.50;;;13.50;79.70;;;;;;5028334;28;20116;-74
2021/12/13 08:01:28;;;;;;;1.98;1.00;;;13.50;79.70;;;;;;5027270;28;20120;-73
2021/12/13 08:04:08;;;;;;;4.88;1.67;;;13.50;79.70;;;;;;5026779;28;20054;-74
2021/12/13 08:06:45;;;;;;;2.58;1.35;;;13.50;79.60;;;;;;5027769;28;20120;-75
2021/12/13 08:09:15;;;;;;;2.88;1.15;;;13.50;79.60;;;;;;5027538;28;20060;-74
2021/12/13 08:11:49;;;;;;;2.90;0.93;;;13.50;79.60;;;;;;5026299;28;20021;-75
2021/12/13 08:14:26;;;;;;;3.47;1.17;;;13.50;79.60;;;;;;5027932;28;20497;-74
2021/12/13 08:16:52;;;;;;;3.97;1.20;;;13.50;79.60;;;;;;5025221;28;20499;-73
2021/12/13 08:19:25;;;;;;;2.53;1.20;;;13.50;79.60;;;;;;5027349;28;20048;-74
2021/12/13 08:22:00;;;;;;;2.85;1.13;;;13.50;79.60;;;;;;5022985;28;20038;-75
2021/12/13 08:24:38;;;;;;;3.88;2.10;;;13.50;79.60;;;;;;5021852;28;20025;-75
2021/12/13 08:27:10;;;;;;;4.68;1.40;;;13.50;79.50;;;;;;5027083;28;20550;-74
2021/12/13 08:29:38;;;;;;;3.03;1.30;;;13.50;79.50;;;;;;5026947;28;20076;-75
2021/12/13 08:32:18;;;;;;;3.08;1.23;;;13.50;79.50;;;;;;5027497;28;20025;-75
2021/12/13 08:34:51;;;;;;;2.55;1.23;;;13.50;79.40;;;;;;5026704;28;20030;-76
2021/12/13 08:37:28;;;;;;;4.03;1.38;;;13.60;79.60;;;;;;5025600;28;20033;-75
2021/12/13 08:40:04;;;;;;;2.40;1.10;;;13.60;79.50;;;;;;5025369;28;20040;-75
2021/12/13 08:42:35;;;;;;;4.15;1.17;;;13.60;79.50;;;;;;5026480;28;20675;-75
2021/12/13 08:45:08;;;;;;;2.25;1.15;;;13.50;79.30;;;;;;5022733;28;20434;-75
2021/12/13 08:47:51;;;;;;;4.30;1.30;;;13.50;79.30;;;;;;5006743;28;20037;-75
2021/12/13 08:50:23;;;;;;;4.68;1.63;;;13.50;79.20;;;;;;5025123;28;20037;-75
2021/12/13 08:52:56;;;;;;;3.47;1.38;;;13.60;79.40;;;;;;5025853;28;20108;-74
2021/12/13 08:55:28;;;;;;;2.63;1.08;;;13.60;79.40;;;;;;5027137;28;20034;-74
2021/12/13 08:57:59;;;;;;;2.45;1.20;;;13.60;79.40;;;;;;5026334;28;20045;-76
2021/12/13 09:00:51;;;;;;;2.95;1.40;;;13.50;79.20;;;;;;5026215;28;20029;-74
2021/12/13 09:03:37;;;;;;;3.47;1.42;;;13.60;79.30;;;;;;5026153;28;20478;-74
2021/12/13 09:06:18;;;;;;;4.35;1.58;;;13.60;79.30;;;;;;5026099;28;20045;-74
2021/12/13 09:09:04;;;;;;;3.65;2.10;;;13.60;79.20;;;;;;5026946;28;20029;-74
2021/12/13 09:11:59;;;;;;;2.72;1.17;;;13.60;79.10;;;;;;5027129;28;20064;-75
2021/12/13 09:14:39;;;;;;;5.30;1.90;;;13.70;79.20;;;;;;5023061;28;20200;-75
2021/12/13 09:17:16;;;;;;;4.95;2.33;;;13.70;79.10;;;;;;5007097;28;20354;-74
2021/12/13 09:19:47;;;;;;;3.80;2.35;;;13.80;79.20;;;;;;5025082;28;20033;-74
2021/12/13 09:22:40;;;;;;;3.28;1.50;;;13.80;79.20;;;;;;5026700;28;20052;-74
2021/12/13 09:25:09;;;;;;;2.22;1.30;;;13.80;79.10;;;;;;5025664;28;20060;-74
2021/12/13 09:27:55;;;;;;;3.20;1.67;;;13.90;79.20;;;;;;5025867;28;20183;-74
2021/12/13 09:30:24;;;;;;;3.72;1.60;;;13.90;79.10;;;;;;5024943;28;20049;-74
2021/12/13 09:33:02;;;;;;;4.72;1.85;;;13.90;78.90;;;;;;5026279;28;20038;-75
2021/12/13 09:35:37;;;;;;;2.45;1.38;;;13.90;78.90;;;;;;5026448;28;20040;-74
2021/12/13 09:38:21;;;;;;;5.13;1.30;;;13.90;78.90;;;;;;5012718;28;20037;-75
2021/12/13 09:41:19;;;;;;;2.50;1.08;;;13.90;78.90;;;;;;5026364;28;20044;-74
2021/12/13 09:44:04;;;;;;;2.00;1.30;;;14.00;79.00;;;;;;5025787;28;20034;-74
2021/12/13 09:46:42;;;;;;;4.80;1.42;;;14.00;78.90;;;;;;5024962;28;20035;-74
2021/12/13 09:49:23;;;;;;;3.42;1.48;;;14.00;78.80;;;;;;5026369;28;21049;-75
2021/12/13 09:51:58;;;;;;;2.53;1.77;;;14.10;78.90;;;;;;5025682;28;20120;-75
2021/12/13 09:54:31;;;;;;;2.05;1.13;;;14.10;78.80;;;;;;5025341;28;20040;-75
2021/12/13 09:57:02;;;;;;;5.00;1.33;;;14.10;78.80;;;;;;5026076;28;20537;-75
2021/12/13 09:59:37;;;;;;;4.43;1.35;;;14.20;78.90;;;;;;5026489;28;20492;-75
2021/12/13 10:02:08;;;;;;;3.88;1.83;;;14.20;78.70;;;;;;5025647;28;20038;-74
2021/12/13 10:04:40;;;;;;;2.33;1.15;;;14.20;78.70;;;;;;5026354;28;20390;-75
2021/12/13 10:07:17;;;;;;;2.33;1.40;;;14.20;78.60;;;;;;5026509;28;20144;-73
2021/12/13 10:10:00;;;;;;;2.67;1.27;;;14.20;78.60;;;;;;5025268;28;20045;-74
2021/12/13 10:12:35;;;;;;;2.47;0.90;;;14.20;78.60;;;;;;5008858;28;20034;-74
2021/12/13 10:15:12;;;;;;;3.03;1.15;;;14.20;78.60;;;;;;5025636;28;20086;-75
2021/12/13 10:17:42;;;;;;;3.17;1.40;;;14.20;78.60;;;;;;5025575;28;20497;-75
2021/12/13 10:20:14;;;;;;;2.05;1.00;;;14.20;78.60;;;;;;5026198;28;20073;-75
2021/12/13 10:22:42;;;;;;;2.08;1.05;;;14.20;78.60;;;;;;5024283;28;20025;-75
2021/12/13 10:25:15;;;;;;;2.25;1.08;;;14.20;78.50;;;;;;5024786;28;20132;-75
2021/12/13 10:27:42;;;;;;;6.03;2.20;;;14.20;78.50;;;;;;5025787;28;20557;-75
2021/12/13 10:30:20;;;;;;;2.38;1.17;;;14.20;78.40;;;;;;5025741;28;20033;-75
2021/12/13 10:32:48;;;;;;;2.45;1.27;;;14.30;78.50;;;;;;5024763;28;20059;-74
2021/12/13 10:35:20;;;;;;;2.35;1.17;;;14.30;78.50;;;;;;5026194;28;20037;-75
2021/12/13 10:37:57;;;;;;;1.92;1.00;;;14.40;78.60;;;;;;5023006;28;20128;-75
2021/12/13 10:40:34;;;;;;;2.67;1.00;;;14.40;78.50;;;;;;5024651;28;20469;-75
2021/12/13 10:43:21;;;;;;;3.63;1.33;;;14.40;78.40;;;;;;5025680;28;20049;-75
2021/12/13 10:46:07;;;;;;;1.83;0.95;;;14.40;78.40;;;;;;5018564;28;20465;-75
2021/12/13 10:48:36;;;;;;;2.08;1.35;;;14.40;78.30;;;;;;5024046;28;20069;-75
2021/12/13 10:51:10;;;;;;;2.88;1.33;;;14.50;78.40;;;;;;5024061;28;20505;-75
2021/12/13 10:53:38;;;;;;;1.98;1.30;;;14.60;78.40;;;;;;5026415;28;20033;-75
2021/12/13 10:56:10;;;;;;;1.73;0.75;;;14.60;78.30;;;;;;5022256;28;20065;-73
2021/12/13 10:58:43;;;;;;;1.65;1.00;;;14.70;78.30;;;;;;5020002;28;20079;-74
2021/12/13 11:01:23;;;;;;;2.73;1.10;;;14.70;78.20;;;;;;5025308;28;20048;-73
2021/12/13 11:03:51;;;;;;;1.33;0.93;;;14.70;78.00;;;;;;5025147;28;20129;-74
2021/12/13 11:06:19;;;;;;;3.28;1.55;;;14.70;78.00;;;;;;5025327;28;20046;-74
2021/12/13 11:08:46;;;;;;;2.33;1.65;;;14.80;78.10;;;;;;5024229;28;20041;-74
2021/12/13 11:11:15;;;;;;;3.20;1.27;;;14.80;78.10;;;;;;5023956;28;20033;-74
2021/12/13 11:13:41;;;;;;;1.65;1.05;;;14.80;78.00;;;;;;5026544;28;20291;-75
2021/12/13 11:16:17;;;;;;;2.80;1.38;;;14.80;78.00;;;;;;5028255;28;20057;-74
2021/12/13 11:18:45;;;;;;;2.17;1.20;;;14.80;78.00;;;;;;5019293;28;20033;-74
2021/12/13 11:21:23;;;;;;;2.35;1.08;;;14.80;78.40;;;;;;5027391;28;20025;-74
2021/12/13 11:23:50;;;;;;;2.78;1.17;;;14.90;77.90;;;;;;5029190;28;20223;-74
2021/12/13 11:26:20;;;;;;;1.50;1.02;;;14.90;77.80;;;;;;5028860;28;20152;-74
2021/12/13 11:28:47;;;;;;;2.15;1.05;;;14.90;77.70;;;;;;5028430;28;20037;-73
2021/12/13 11:31:58;;;;;;;3.38;1.52;;;15.00;77.80;;;;;;5029451;28;20029;-75
2021/12/13 11:34:51;;;;;;;1.80;1.27;;;15.00;77.60;;;;;;5027269;28;20030;-72
2021/12/13 11:37:54;;;;;;;3.72;1.23;;;15.00;77.50;;;;;;5029461;28;20409;-75
2021/12/13 11:41:01;;;;;;;1.55;1.30;;;15.00;77.50;;;;;;5028654;28;20029;-75
2021/12/13 11:43:53;;;;;;;2.50;1.35;;;15.10;77.60;;;;;;5028399;28;20095;-74
2021/12/13 11:46:41;;;;;;;1.83;1.40;;;15.10;77.60;;;;;;5030146;28;20049;-75
2021/12/13 11:49:26;;;;;;;2.13;1.42;;;15.10;77.60;;;;;;5029473;28;20046;-75
2021/12/13 11:52:16;;;;;;;3.10;1.52;;;15.10;77.50;;;;;;5028527;28;20255;-74
2021/12/13 11:55:35;;;;;;;2.92;1.20;;;15.00;77.40;;;;;;5028348;28;20120;-73
2021/12/13 11:58:40;;;;;;;4.32;1.70;;;15.10;77.50;;;;;;5028292;28;20041;-74
2021/12/13 12:01:50;;;;;;;2.83;1.30;;;15.00;77.30;;;;;;5019212;28;20052;-73
2021/12/13 12:04:53;;;;;;;1.10;1.00;;;15.10;77.60;;;;;;4976872;28;20517;-74
2021/12/13 12:07:31;;;;;;;1.90;1.30;;;15.10;77.60;;;;;;5009179;28;20132;-74
2021/12/13 12:10:25;;;;;;;1.73;1.58;;;15.20;77.70;;;;;;5027827;28;20282;-75
2021/12/13 12:13:09;;;;;;;2.13;1.35;;;15.20;77.60;;;;;;5026607;28;20037;-74
2021/12/13 12:15:39;;;;;;;1.98;1.10;;;15.20;77.60;;;;;;5027248;28;20034;-74
2021/12/13 12:18:09;;;;;;;2.50;1.08;;;15.20;77.50;;;;;;5027924;28;20037;-73
2021/12/13 12:20:50;;;;;;;2.22;1.30;;;15.20;77.50;;;;;;5026151;28;20167;-74
2021/12/13 12:23:31;;;;;;;1.95;1.17;;;15.20;77.50;;;;;;5026909;28;20033;-74
2021/12/13 12:26:00;;;;;;;2.30;1.30;;;15.10;77.40;;;;;;5027801;28;20481;-74
2021/12/13 12:28:30;;;;;;;2.20;1.20;;;15.20;77.50;;;;;;5027030;28;20034;-74
2021/12/13 12:30:58;;;;;;;1.35;0.80;;;15.20;77.50;;;;;;5027716;28;20037;-74
2021/12/13 12:33:38;;;;;;;1.98;1.20;;;15.20;77.40;;;;;;5027407;28;20096;-74
2021/12/13 12:36:19;;;;;;;3.92;1.23;;;15.20;77.30;;;;;;5027447;28;20040;-74
2021/12/13 12:39:03;;;;;;;1.90;1.35;;;15.30;77.50;;;;;;5027562;28;20151;-74
2021/12/13 12:42:01;;;;;;;1.05;0.90;;;15.30;77.40;;;;;;5027246;28;20052;-73
2021/12/13 12:44:35;;;;;;;0.90;0.70;;;15.20;77.10;;;;;;5022723;28;20103;-75
2021/12/13 12:47:02;;;;;;;2.88;1.50;;;15.30;77.20;;;;;;5027140;28;20029;-73
2021/12/13 12:49:28;;;;;;;2.42;1.00;;;15.30;77.20;;;;;;5025928;28;20049;-74
2021/12/13 12:52:03;;;;;;;2.90;1.27;;;15.40;77.30;;;;;;5026999;28;20112;-74
2021/12/13 12:54:34;;;;;;;2.83;0.98;;;15.40;77.20;;;;;;5026589;28;20025;-75
2021/12/13 12:57:03;;;;;;;5.18;2.22;;;15.40;77.20;;;;;;5026824;28;20115;-73
2021/12/13 12:59:39;;;;;;;1.02;0.65;;;15.40;77.10;;;;;;5026863;28;20022;-75
2021/12/13 13:02:10;;;;;;;1.00;0.70;;;15.40;77.00;;;;;;5025760;28;20484;-74
2021/12/13 13:04:40;;;;;;;1.65;0.98;;;15.50;77.20;;;;;;5026866;28;20042;-74
2021/12/13 13:07:30;;;;;;;1.38;1.10;;;15.50;77.10;;;;;;5027340;28;20056;-74
2021/12/13 13:10:23;;;;;;;1.85;1.52;;;15.50;77.10;;;;;;5026444;28;20061;-75
2021/12/13 13:12:52;;;;;;;2.17;1.23;;;15.50;76.90;;;;;;5027023;28;20033;-75
2021/12/13 13:15:36;;;;;;;1.27;0.98;;;15.50;76.90;;;;;;5027211;28;20042;-75
2021/12/13 13:18:13;;;;;;;2.15;1.25;;;15.60;77.00;;;;;;5027179;28;20115;-74
2021/12/13 13:20:44;;;;;;;1.73;0.90;;;15.60;77.00;;;;;;5026943;28;20458;-73
2021/12/13 13:23:12;;;;;;;1.15;0.88;;;15.60;76.90;;;;;;5024427;28;20125;-74
2021/12/13 13:25:54;;;;;;;1.63;1.38;;;15.60;76.80;;;;;;5026109;28;20627;-74
2021/12/13 13:28:23;;;;;;;3.75;1.20;;;15.70;77.00;;;;;;5026439;28;20029;-73
2021/12/13 13:30:59;;;;;;;1.90;1.00;;;15.70;76.90;;;;;;5026408;28;20047;-74
2021/12/13 13:33:35;;;;;;;2.00;1.02;;;15.70;76.90;;;;;;5022167;28;20043;-75
2021/12/13 13:36:04;;;;;;;1.15;0.75;;;15.60;76.70;;;;;;5026424;28;20029;-77
2021/12/13 13:38:30;;;;;;;2.60;1.42;;;15.70;76.90;;;;;;5026396;28;20030;-76
2021/12/13 13:40:56;;;;;;;1.15;1.05;;;15.60;76.80;;;;;;5026863;28;20190;-75